Time;durP1;ratioP1;P1;durP2;ratioP2;P2;SDS_P1;SDS_P2;PMS_P1;PMS_P2;Temp;Humidity;BMP_temperature;BMP_pressure;BME280_temperature;BME280_humidity;BME280_pressure;Samples;Min_cycle;Max_cycle;Signal;HPM_P1;HPM_P2
2021/07/10 00:01:53;;;;;;;;;;;;;;;14.65;93.12;99798.63;4976549;28;20420;-62
2021/07/10 00:04:18;;;;;;;;;;;;;;;14.53;93.41;99797.97;4977074;28;19921;-62
2021/07/10 00:06:43;;;;;;;;;;;;;;;14.31;93.70;99788.00;4976367;28;20292;-61
2021/07/10 00:09:08;;;;;;;;;;;;;;;14.20;94.16;99781.72;4976815;28;20002;-62
2021/07/10 00:11:34;;;;;;;;;;;;;;;14.06;93.85;99785.84;4976367;28;19918;-62
2021/07/10 00:13:59;;;;;;;;;;;;;;;14.11;94.06;99794.00;4976540;28;19957;-61
2021/07/10 00:16:24;;;;;;;;;;;;;;;14.16;93.92;99790.53;4976197;28;20379;-61
2021/07/10 00:18:49;;;;;;;;;;;;;;;14.23;93.39;99789.28;4976602;28;19915;-61
2021/07/10 00:21:15;;;;;;;;;;;;;;;14.20;93.12;99781.72;4976181;28;19918;-61
2021/07/10 00:23:40;;;;;;;;;;;;;;;14.15;92.68;99783.50;4974168;28;20342;-62
2021/07/10 00:26:05;;;;;;;;;;;;;;;14.20;92.15;99780.88;4976118;28;19918;-62
2021/07/10 00:28:30;;;;;;;;;;;;;;;14.25;91.75;99780.91;4976465;28;19918;-62
2021/07/10 00:30:56;;;;;;;;;;;;;;;14.26;91.13;99776.38;4976363;28;20372;-61
2021/07/10 00:33:21;;;;;;;;;;;;;;;14.22;91.21;99790.34;4976570;28;19956;-62
2021/07/10 00:35:46;;;;;;;;;;;;;;;14.13;91.61;99781.09;4976119;28;19957;-62
2021/07/10 00:38:12;;;;;;;;;;;;;;;14.14;91.84;99781.88;4976406;28;20423;-62
2021/07/10 00:40:37;;;;;;;;;;;;;;;14.23;91.83;99767.72;4974602;28;19924;-61
2021/07/10 00:43:02;;;;;;;;;;;;;;;14.30;91.83;99759.41;4976233;28;20272;-62
2021/07/10 00:45:27;;;;;;;;;;;;;;;14.28;92.13;99761.56;4975636;28;19925;-62
2021/07/10 00:47:53;;;;;;;;;;;;;;;14.32;91.95;99751.88;4976506;28;19914;-62
2021/07/10 00:50:19;;;;;;;;;;;;;;;14.32;92.46;99754.56;4975537;28;19925;-62
2021/07/10 00:52:44;;;;;;;;;;;;;;;14.31;92.68;99742.19;4976056;28;19914;-62
2021/07/10 00:55:10;;;;;;;;;;;;;;;14.38;92.69;99739.28;4975705;28;20005;-62
2021/07/10 00:57:35;;;;;;;;;;;;;;;14.34;92.54;99738.16;4975738;28;20265;-62
2021/07/10 01:00:03;;;;;;;;;;;;;;;14.35;92.50;99743.31;4974182;28;19921;-62
2021/07/10 01:02:28;;;;;;;;;;;;;;;14.45;92.11;99731.78;4976054;28;19910;-61
2021/07/10 01:04:53;;;;;;;;;;;;;;;14.43;92.01;99733.94;4974568;28;19914;-61
2021/07/10 01:07:18;;;;;;;;;;;;;;;14.35;92.13;99729.81;4975322;28;20348;-61
2021/07/10 01:09:44;;;;;;;;;;;;;;;14.28;92.80;99734.59;4974291;28;19910;-61
2021/07/10 01:12:09;;;;;;;;;;;;;;;14.32;92.57;99735.69;4975170;28;19918;-62
2021/07/10 01:14:34;;;;;;;;;;;;;;;14.29;92.54;99730.03;4975845;28;20343;-61
2021/07/10 01:16:59;;;;;;;;;;;;;;;14.25;92.16;99724.31;4973634;28;20005;-62
2021/07/10 01:19:28;;;;;;;;;;;;;;;14.15;92.47;99727.75;4974281;28;19985;-62
2021/07/10 01:21:56;;;;;;;;;;;;;;;14.16;92.17;99723.16;4973729;28;20352;-62
2021/07/10 01:24:21;;;;;;;;;;;;;;;13.95;93.09;99730.19;4973928;28;19914;-61
2021/07/10 01:26:47;;;;;;;;;;;;;;;13.88;93.55;99719.63;4974677;28;19973;-61
2021/07/10 01:29:12;;;;;;;;;;;;;;;13.85;93.78;99724.69;4975487;28;19910;-61
2021/07/10 01:31:38;;;;;;;;;;;;;;;13.74;94.12;99724.56;4974789;28;20376;-62
2021/07/10 01:34:03;;;;;;;;;;;;;;;13.72;94.06;99718.59;4973785;28;19910;-62
2021/07/10 01:36:29;;;;;;;;;;;;;;;13.67;93.84;99715.03;4974689;28;19922;-62
2021/07/10 01:38:54;;;;;;;;;;;;;;;13.67;94.55;99710.47;4975132;28;19968;-62
2021/07/10 01:41:19;;;;;;;;;;;;;;;13.65;94.65;99712.59;4974553;28;20021;-62
2021/07/10 01:43:44;;;;;;;;;;;;;;;13.66;93.95;99716.94;4975029;28;19914;-62
2021/07/10 01:46:10;;;;;;;;;;;;;;;13.55;94.08;99713.31;4973147;28;20398;-62
2021/07/10 01:48:35;;;;;;;;;;;;;;;13.56;93.70;99712.22;4975203;28;20427;-62
2021/07/10 01:51:00;;;;;;;;;;;;;;;13.49;93.92;99716.97;4974566;28;19918;-62
2021/07/10 01:53:25;;;;;;;;;;;;;;;13.45;94.10;99707.75;4974965;28;19914;-61
2021/07/10 01:55:51;;;;;;;;;;;;;;;13.40;94.46;99702.31;4974405;28;19918;-62
2021/07/10 01:58:16;;;;;;;;;;;;;;;13.41;95.14;99703.97;4974879;28;19969;-61
2021/07/10 02:00:43;;;;;;;;;;;;;;;13.37;94.60;99700.94;4974249;28;19966;-61
2021/07/10 02:03:08;;;;;;;;;;;;;;;13.39;95.11;99706.09;4974738;28;19914;-61
2021/07/10 02:05:33;;;;;;;;;;;;;;;13.40;94.94;99706.88;4974483;28;20410;-61
2021/07/10 02:07:59;;;;;;;;;;;;;;;13.43;95.16;99703.69;4974727;28;20284;-62
2021/07/10 02:10:24;;;;;;;;;;;;;;;13.43;95.17;99696.44;4974251;28;19969;-61
2021/07/10 02:12:50;;;;;;;;;;;;;;;13.50;94.88;99696.25;4974686;28;20371;-61
2021/07/10 02:15:16;;;;;;;;;;;;;;;13.51;95.34;99697.91;4974088;28;19914;-62
2021/07/10 02:17:44;;;;;;;;;;;;;;;13.44;94.56;99692.69;4974670;28;19921;-62
2021/07/10 02:20:09;;;;;;;;;;;;;;;13.41;94.65;99693.19;4974161;28;19922;-62
2021/07/10 02:22:35;;;;;;;;;;;;;;;13.43;94.72;99691.06;4974559;28;20033;-62
2021/07/10 02:25:00;;;;;;;;;;;;;;;13.43;94.83;99701.00;4974533;28;20337;-62
2021/07/10 02:27:27;;;;;;;;;;;;;;;13.40;94.66;99694.22;4974167;28;19918;-62
2021/07/10 02:29:52;;;;;;;;;;;;;;;13.23;95.39;99691.59;4973215;28;19914;-61
2021/07/10 02:32:17;;;;;;;;;;;;;;;13.24;95.77;99687.00;4973885;28;19918;-61
2021/07/10 02:34:42;;;;;;;;;;;;;;;13.21;96.05;99682.13;4974423;28;20361;-62
2021/07/10 02:37:08;;;;;;;;;;;;;;;13.23;96.51;99685.34;4973918;28;19957;-61
2021/07/10 02:39:33;;;;;;;;;;;;;;;13.13;96.81;99684.19;4974248;28;19914;-61
2021/07/10 02:41:58;;;;;;;;;;;;;;;13.10;96.72;99678.47;4973961;28;19924;-61
2021/07/10 02:44:23;;;;;;;;;;;;;;;13.04;96.76;99682.97;4974456;28;19914;-61
2021/07/10 02:46:49;;;;;;;;;;;;;;;13.05;96.81;99673.81;4974748;28;19957;-62
2021/07/10 02:49:14;;;;;;;;;;;;;;;13.04;96.56;99672.19;4978435;28;19914;-61
2021/07/10 02:51:39;;;;;;;;;;;;;;;13.05;96.38;99679.19;4976535;28;19914;-62
2021/07/10 02:54:05;;;;;;;;;;;;;;;13.04;96.33;99672.19;4978272;28;20347;-61
2021/07/10 02:56:30;;;;;;;;;;;;;;;13.04;96.10;99669.50;4977728;28;19929;-62
2021/07/10 02:58:55;;;;;;;;;;;;;;;13.06;96.08;99675.47;4978245;28;19949;-61
2021/07/10 03:01:21;;;;;;;;;;;;;;;13.05;95.73;99678.38;4977630;28;19925;-61
2021/07/10 03:03:46;;;;;;;;;;;;;;;13.03;95.59;99670.59;4978094;28;19914;-62
2021/07/10 03:06:11;;;;;;;;;;;;;;;12.96;96.18;99675.31;4977657;28;20403;-61
2021/07/10 03:08:37;;;;;;;;;;;;;;;12.83;96.93;99668.41;4977893;28;19914;-61
2021/07/10 03:11:02;;;;;;;;;;;;;;;12.72;97.20;99675.50;4977495;28;20012;-61
2021/07/10 03:13:28;;;;;;;;;;;;;;;12.61;97.68;99667.53;4978103;28;20284;-61
2021/07/10 03:15:53;;;;;;;;;;;;;;;12.57;97.79;99661.81;4977593;28;19918;-61
2021/07/10 03:18:20;;;;;;;;;;;;;;;12.55;98.16;99658.53;4977771;28;20307;-61
2021/07/10 03:20:45;;;;;;;;;;;;;;;12.55;98.31;99657.75;4977377;28;20402;-61
2021/07/10 03:23:11;;;;;;;;;;;;;;;12.52;98.26;99661.72;4977721;28;19910;-61
2021/07/10 03:25:37;;;;;;;;;;;;;;;12.54;98.52;99656.94;4977262;28;20265;-61
2021/07/10 03:28:02;;;;;;;;;;;;;;;12.56;98.53;99662.88;4977893;28;20268;-61
2021/07/10 03:30:28;;;;;;;;;;;;;;;12.67;98.49;99663.84;4977354;28;19918;-61
2021/07/10 03:32:53;;;;;;;;;;;;;;;12.70;98.32;99655.28;4977706;28;20347;-61
2021/07/10 03:35:18;;;;;;;;;;;;;;;12.67;97.76;99659.28;4977230;28;19914;-62
2021/07/10 03:37:45;;;;;;;;;;;;;;;12.67;97.21;99653.09;4977494;28;20284;-62
2021/07/10 03:40:11;;;;;;;;;;;;;;;12.64;96.78;99657.09;4977042;28;19969;-62
2021/07/10 03:42:36;;;;;;;;;;;;;;;12.69;97.26;99659.84;4976368;28;19910;-62
2021/07/10 03:45:01;;;;;;;;;;;;;;;12.73;96.86;99660.19;4976901;28;20356;-62
2021/07/10 03:47:27;;;;;;;;;;;;;;;12.78;96.58;99657.56;4977084;28;19918;-61
2021/07/10 03:49:53;;;;;;;;;;;;;;;12.78;96.56;99656.75;4977174;28;20398;-61
2021/07/10 03:52:18;;;;;;;;;;;;;;;13.02;96.32;99655.47;4976870;28;19918;-61
2021/07/10 03:54:43;;;;;;;;;;;;;;;13.20;94.11;99661.63;4977281;28;20379;-61
2021/07/10 03:57:09;;;;;;;;;;;;;;;13.48;91.78;99661.50;4977185;28;19961;-62
2021/07/10 03:59:34;;;;;;;;;;;;;;;13.66;90.23;99659.56;4977162;28;19914;-61
2021/07/10 04:01:59;;;;;;;;;;;;;;;13.57;89.50;99662.69;4976583;28;20112;-61
2021/07/10 04:04:24;;;;;;;;;;;;;;;13.66;89.20;99656.88;4977093;28;20008;-62
2021/07/10 04:06:51;;;;;;;;;;;;;;;13.59;89.75;99659.75;4976712;28;19922;-61
2021/07/10 04:09:16;;;;;;;;;;;;;;;14.55;86.20;99658.25;4975659;28;20284;-62
2021/07/10 04:11:41;;;;;;;;;;;;;;;15.10;83.59;99649.75;4976652;28;20000;-62
2021/07/10 04:14:07;;;;;;;;;;;;;;;15.00;85.09;99648.84;4976950;28;19914;-62
2021/07/10 04:16:32;;;;;;;;;;;;;;;16.07;79.05;99645.75;4976499;28;19918;-62
2021/07/10 04:18:57;;;;;;;;;;;;;;;16.27;77.61;99651.19;4976933;28;20344;-62
2021/07/10 04:21:22;;;;;;;;;;;;;;;17.11;74.07;99648.97;4976524;28;20005;-62
2021/07/10 04:23:48;;;;;;;;;;;;;;;17.82;71.94;99647.06;4976746;28;19914;-62
2021/07/10 04:26:13;;;;;;;;;;;;;;;17.82;70.76;99647.91;4976372;28;19918;-62
2021/07/10 04:28:38;;;;;;;;;;;;;;;16.73;73.99;99644.97;4976714;28;19917;-62
2021/07/10 04:31:03;;;;;;;;;;;;;;;17.27;73.08;99636.16;4974959;28;19918;-62
2021/07/10 04:33:29;;;;;;;;;;;;;;;17.71;71.48;99646.28;4976601;28;19918;-62
2021/07/10 04:35:54;;;;;;;;;;;;;;;19.06;66.69;99634.94;4976019;28;19918;-62
2021/07/10 04:38:20;;;;;;;;;;;;;;;19.43;64.33;99632.63;4976289;28;19914;-62
2021/07/10 04:40:45;;;;;;;;;;;;;;;19.50;65.56;99633.88;4976166;28;19981;-62
2021/07/10 04:43:11;;;;;;;;;;;;;;;20.07;63.44;99633.94;4976457;28;20293;-62
2021/07/10 04:45:36;;;;;;;;;;;;;;;19.23;66.37;99636.38;4975841;28;20023;-63
2021/07/10 04:48:02;;;;;;;;;;;;;;;18.50;68.44;99635.47;4974992;28;19940;-62
2021/07/10 04:50:27;;;;;;;;;;;;;;;17.12;72.77;99641.66;4975967;28;19929;-63
2021/07/10 04:52:52;;;;;;;;;;;;;;;16.21;78.04;99637.94;4976134;28;19941;-62
2021/07/10 04:55:18;;;;;;;;;;;;;;;16.05;79.70;99632.53;4974377;28;20350;-62
2021/07/10 04:57:43;;;;;;;;;;;;;;;15.74;80.44;99637.03;4976161;28;19921;-62
2021/07/10 05:00:09;;;;;;;;;;;;;;;15.39;82.93;99638.53;4975744;28;20364;-62
2021/07/10 05:02:34;;;;;;;;;;;;;;;15.26;82.64;99642.53;4974737;28;19910;-62
2021/07/10 05:04:59;;;;;;;;;;;;;;;14.80;85.48;99644.97;4975974;28;20284;-62
2021/07/10 05:07:25;;;;;;;;;;;;;;;14.68;86.95;99647.06;4975495;28;19918;-62
2021/07/10 05:09:50;;;;;;;;;;;;;;;14.08;89.17;99648.97;4975304;28;19996;-62
2021/07/10 05:12:18;;;;;;;;;;;;;;;13.95;90.52;99654.72;4975461;28;20088;-61
2021/07/10 05:14:43;;;;;;;;;;;;;;;14.03;90.43;99647.03;4975684;28;20061;-62
2021/07/10 05:17:08;;;;;;;;;;;;;;;13.88;90.34;99648.72;4973932;28;20020;-62
2021/07/10 05:19:33;;;;;;;;;;;;;;;13.93;91.10;99646.91;4975829;28;19914;-62
2021/07/10 05:21:59;;;;;;;;;;;;;;;14.14;89.94;99647.13;4975332;28;20138;-62
2021/07/10 05:24:24;;;;;;;;;;;;;;;14.20;90.01;99643.38;4975949;28;20024;-62
2021/07/10 05:26:49;;;;;;;;;;;;;;;14.41;89.16;99639.00;4975069;28;20272;-62
2021/07/10 05:29:16;;;;;;;;;;;;;;;14.46;88.81;99639.84;4975786;28;19910;-61
2021/07/10 05:31:41;;;;;;;;;;;;;;;14.43;88.51;99644.94;4975155;28;19918;-61
2021/07/10 05:34:06;;;;;;;;;;;;;;;14.54;89.45;99640.47;4975535;28;20017;-61
2021/07/10 05:36:31;;;;;;;;;;;;;;;14.49;88.39;99643.09;4975023;28;20376;-62
2021/07/10 05:38:57;;;;;;;;;;;;;;;14.57;88.43;99640.75;4975259;28;19914;-61
2021/07/10 05:41:22;;;;;;;;;;;;;;;14.42;88.43;99640.59;4975091;28;19925;-61
2021/07/10 05:43:47;;;;;;;;;;;;;;;14.56;88.54;99643.72;4975462;28;20287;-61
2021/07/10 05:46:13;;;;;;;;;;;;;;;14.79;87.74;99643.34;4974769;28;19922;-61
2021/07/10 05:48:38;;;;;;;;;;;;;;;14.95;87.25;99648.81;4975712;28;20022;-61
2021/07/10 05:51:03;;;;;;;;;;;;;;;15.01;88.05;99637.00;4974947;28;20360;-61
2021/07/10 05:53:28;;;;;;;;;;;;;;;15.15;87.63;99637.31;4975144;28;20328;-62
2021/07/10 05:55:54;;;;;;;;;;;;;;;15.32;86.95;99637.94;4974669;28;19918;-61
2021/07/10 05:58:19;;;;;;;;;;;;;;;15.36;85.47;99632.84;4975182;28;19972;-61
2021/07/10 06:00:44;;;;;;;;;;;;;;;15.46;86.92;99635.59;4974661;28;20400;-62
2021/07/10 06:03:09;;;;;;;;;;;;;;;15.77;84.88;99631.09;4975132;28;19917;-62
2021/07/10 06:05:37;;;;;;;;;;;;;;;15.61;84.40;99627.53;4974754;28;19989;-61
2021/07/10 06:08:02;;;;;;;;;;;;;;;15.59;84.79;99634.28;4974895;28;19917;-61
2021/07/10 06:10:28;;;;;;;;;;;;;;;15.67;84.16;99623.75;4974789;28;19918;-62
2021/07/10 06:12:53;;;;;;;;;;;;;;;15.30;86.48;99635.53;4975198;28;20281;-62
2021/07/10 06:15:18;;;;;;;;;;;;;;;15.68;84.48;99633.50;4974479;28;19920;-62
2021/07/10 06:17:43;;;;;;;;;;;;;;;15.64;84.33;99632.41;4974805;28;19914;-62
2021/07/10 06:20:10;;;;;;;;;;;;;;;15.99;84.72;99640.88;4974293;28;19917;-61
2021/07/10 06:22:35;;;;;;;;;;;;;;;16.73;80.82;99636.84;4972596;28;19918;-61
2021/07/10 06:25:01;;;;;;;;;;;;;;;16.91;79.60;99636.28;4957023;28;19918;-61
2021/07/10 06:27:26;;;;;;;;;;;;;;;16.58;81.03;99641.19;4974888;28;19993;-62
2021/07/10 06:29:51;;;;;;;;;;;;;;;16.65;80.45;99635.50;4973677;28;19936;-62
2021/07/10 06:32:16;;;;;;;;;;;;;;;16.76;81.06;99630.88;4973129;28;20368;-62
2021/07/10 06:34:42;;;;;;;;;;;;;;;16.26;82.56;99632.53;4974664;28;19921;-61
2021/07/10 06:37:07;;;;;;;;;;;;;;;16.06;84.58;99644.16;4974106;28;20328;-62
2021/07/10 06:39:32;;;;;;;;;;;;;;;16.11;84.62;99641.44;4974965;28;19914;-62
2021/07/10 06:41:58;;;;;;;;;;;;;;;16.45;82.97;99641.75;4974281;28;20398;-61
2021/07/10 06:44:23;;;;;;;;;;;;;;;16.24;83.87;99640.09;4974593;28;19914;-62
2021/07/10 06:46:48;;;;;;;;;;;;;;;16.41;82.79;99634.44;4973873;28;19926;-62
2021/07/10 06:49:13;;;;;;;;;;;;;;;16.20;83.88;99639.00;4974648;28;19917;-62
2021/07/10 06:51:40;;;;;;;;;;;;;;;16.29;83.53;99640.09;4974103;28;19929;-62
2021/07/10 06:54:05;;;;;;;;;;;;;;;16.57;82.66;99636.88;4974490;28;19973;-62
2021/07/10 06:56:30;;;;;;;;;;;;;;;16.41;83.29;99639.84;4974359;28;19969;-62
2021/07/10 06:58:56;;;;;;;;;;;;;;;16.51;83.06;99640.63;4974574;28;19949;-63
2021/07/10 07:01:21;;;;;;;;;;;;;;;16.45;82.75;99633.63;4974037;28;19924;-63
2021/07/10 07:03:46;;;;;;;;;;;;;;;17.06;80.78;99624.59;4974637;28;19921;-62
2021/07/10 07:06:11;;;;;;;;;;;;;;;17.24;80.37;99631.31;4974068;28;20356;-61
2021/07/10 07:08:37;;;;;;;;;;;;;;;17.12;80.00;99633.53;4974744;28;19914;-61
2021/07/10 07:11:02;;;;;;;;;;;;;;;17.52;78.57;99624.41;4974441;28;20335;-62
2021/07/10 07:13:27;;;;;;;;;;;;;;;18.26;76.19;99625.34;4974459;28;19921;-61
2021/07/10 07:15:52;;;;;;;;;;;;;;;18.20;74.98;99626.47;4974006;28;19941;-61
2021/07/10 07:18:18;;;;;;;;;;;;;;;19.13;72.02;99618.28;4974284;28;19914;-61
2021/07/10 07:20:43;;;;;;;;;;;;;;;20.01;69.73;99625.00;4973531;28;20001;-62
2021/07/10 07:23:08;;;;;;;;;;;;;;;20.34;67.27;99618.78;4973224;28;19918;-61
2021/07/10 07:25:34;;;;;;;;;;;;;;;21.44;64.11;99615.41;4974117;28;19918;-62
2021/07/10 07:27:59;;;;;;;;;;;;;;;21.24;64.65;99612.00;4972888;28;20388;-61
2021/07/10 07:30:25;;;;;;;;;;;;;;;22.22;61.57;99609.88;4973677;28;20384;-62
2021/07/10 07:32:50;;;;;;;;;;;;;;;22.60;60.74;99616.53;4975079;28;19957;-61
2021/07/10 07:35:16;;;;;;;;;;;;;;;22.77;59.12;99613.09;4977335;28;19968;-62
2021/07/10 07:37:41;;;;;;;;;;;;;;;23.76;55.83;99601.03;4976533;28;19969;-61
2021/07/10 07:40:07;;;;;;;;;;;;;;;23.56;56.21;99605.94;4977166;28;19918;-61
2021/07/10 07:42:32;;;;;;;;;;;;;;;22.93;58.47;99604.47;4977768;28;19925;-61
2021/07/10 07:44:57;;;;;;;;;;;;;;;22.31;61.50;99600.63;4977664;28;20308;-61
2021/07/10 07:47:23;;;;;;;;;;;;;;;22.20;61.22;99598.47;4975677;28;19928;-61
2021/07/10 07:49:48;;;;;;;;;;;;;;;22.33;61.04;99608.50;4977493;28;20000;-61
2021/07/10 07:52:13;;;;;;;;;;;;;;;23.02;58.90;99599.88;4977023;28;19925;-62
2021/07/10 07:54:39;;;;;;;;;;;;;;;24.46;54.43;99593.56;4977607;28;19918;-61
2021/07/10 07:57:04;;;;;;;;;;;;;;;25.08;53.54;99603.19;4976904;28;20383;-61
2021/07/10 07:59:29;;;;;;;;;;;;;;;25.68;50.28;99601.25;4977402;28;19940;-62
2021/07/10 08:01:55;;;;;;;;;;;;;;;26.92;48.27;99592.31;4976976;28;19980;-62
2021/07/10 08:04:20;;;;;;;;;;;;;;;25.66;50.46;99592.53;4977316;28;19910;-62
2021/07/10 08:06:45;;;;;;;;;;;;;;;25.49;50.46;99588.78;4976687;28;19960;-62
2021/07/10 08:09:11;;;;;;;;;;;;;;;24.89;52.51;99579.75;4977154;28;19964;-62
2021/07/10 08:11:36;;;;;;;;;;;;;;;24.88;53.19;99580.06;4976761;28;20055;-61
2021/07/10 08:14:02;;;;;;;;;;;;;;;23.40;57.11;99585.66;4977221;28;19914;-61
2021/07/10 08:16:27;;;;;;;;;;;;;;;23.74;57.76;99574.00;4976588;28;19913;-61
2021/07/10 08:18:52;;;;;;;;;;;;;;;24.45;55.74;99575.50;4977052;28;19920;-61
2021/07/10 08:21:18;;;;;;;;;;;;;;;24.53;54.55;99574.69;4976593;28;19924;-61
2021/07/10 08:23:43;;;;;;;;;;;;;;;24.68;54.28;99581.59;4977134;28;19914;-61
2021/07/10 08:26:08;;;;;;;;;;;;;;;23.79;57.35;99578.47;4975489;28;19969;-62
2021/07/10 08:28:34;;;;;;;;;;;;;;;23.45;57.16;99582.78;4977026;28;19922;-61
2021/07/10 08:30:59;;;;;;;;;;;;;;;23.67;56.28;99576.38;4976477;28;19988;-61
2021/07/10 08:33:24;;;;;;;;;;;;;;;23.31;54.68;99571.97;4976819;28;19921;-60
2021/07/10 08:35:50;;;;;;;;;;;;;;;21.87;58.70;99557.75;4976219;28;19957;-63
2021/07/10 08:38:15;;;;;;;;;;;;;;;23.22;55.46;99560.22;4976627;28;20292;-61
2021/07/10 08:40:40;;;;;;;;;;;;;;;23.88;54.52;99558.19;4976415;28;19918;-62
2021/07/10 08:43:05;;;;;;;;;;;;;;;22.43;55.71;99564.56;4976661;28;19916;-62
2021/07/10 08:45:32;;;;;;;;;;;;;;;20.75;61.95;99561.75;4975115;28;19925;-62
2021/07/10 08:47:57;;;;;;;;;;;;;;;21.60;60.00;99562.19;4976541;28;19972;-62
2021/07/10 08:50:22;;;;;;;;;;;;;;;21.87;58.30;99552.28;4975851;28;19945;-62
2021/07/10 08:52:48;;;;;;;;;;;;;;;21.91;57.63;99553.25;4976516;28;19913;-62
2021/07/10 08:55:13;;;;;;;;;;;;;;;20.65;62.61;99553.75;4975847;28;19981;-62
2021/07/10 08:57:39;;;;;;;;;;;;;;;21.75;59.04;99561.81;4976283;28;19918;-62
2021/07/10 09:00:05;;;;;;;;;;;;;;;23.20;55.69;99557.81;4975985;28;19914;-62
2021/07/10 09:02:32;;;;;;;;;;;;;;;22.67;56.47;99568.84;4976209;28;20380;-62
2021/07/10 09:04:59;;;;;;;;;;;;;;;22.98;56.08;99553.25;4976140;28;19914;-62
2021/07/10 09:07:24;;;;;;;;;;;;;;;22.86;58.11;99550.28;4975628;28;19973;-62
2021/07/10 09:09:50;;;;;;;;;;;;;;;22.37;57.90;99550.22;4976146;28;20359;-62
2021/07/10 09:12:25;;;;;;;;;;;;;;;23.65;54.21;99548.53;4975731;28;19918;-62
2021/07/10 09:14:51;;;;;;;;;;;;;;;23.18;53.18;99556.50;4974935;28;20017;-62
2021/07/10 09:17:20;;;;;;;;;;;;;;;23.73;53.51;99545.00;4975499;28;20001;-62
2021/07/10 09:19:45;;;;;;;;;;;;;;;24.14;50.84;99543.69;4975857;28;20005;-62
2021/07/10 09:22:11;;;;;;;;;;;;;;;25.47;47.91;99532.63;4975284;28;20010;-62
2021/07/10 09:24:37;;;;;;;;;;;;;;;26.22;47.37;99535.38;4975835;28;19965;-62
2021/07/10 09:27:06;;;;;;;;;;;;;;;24.85;47.79;99529.44;4975325;28;19918;-62
2021/07/10 09:29:40;;;;;;;;;;;;;;;25.50;48.44;99526.47;4975833;28;19919;-62
2021/07/10 09:32:07;;;;;;;;;;;;;;;26.06;44.94;99531.66;4975395;28;19954;-63
2021/07/10 09:34:35;;;;;;;;;;;;;;;26.02;44.98;99521.34;4975738;28;19914;-62
2021/07/10 09:37:11;;;;;;;;;;;;;;;26.52;45.26;99521.47;4975166;28;19925;-62
2021/07/10 09:39:40;;;;;;;;;;;;;;;25.35;45.38;99525.94;4975711;28;19914;-63
2021/07/10 09:42:05;;;;;;;;;;;;;;;25.11;45.10;99521.06;4975211;28;19914;-63
2021/07/10 09:44:41;;;;;;;;;;;;;;;25.34;44.78;99523.53;4975455;28;20284;-62
2021/07/10 09:47:06;;;;;;;;;;;;;;;22.89;51.85;99510.56;4974905;28;19977;-63
2021/07/10 09:49:31;;;;;;;;;;;;;;;22.45;52.92;99513.16;4975479;28;19914;-62
2021/07/10 09:52:00;;;;;;;;;;;;;;;23.79;49.80;99508.16;4973705;28;19925;-62
2021/07/10 09:54:35;;;;;;;;;;;;;;;23.68;48.82;99509.56;4975244;28;19933;-62
2021/07/10 09:57:01;;;;;;;;;;;;;;;23.34;49.04;99499.41;4974783;28;19918;-62
2021/07/10 09:59:27;;;;;;;;;;;;;;;22.82;47.50;99494.66;4975323;28;19918;-62
2021/07/10 10:01:52;;;;;;;;;;;;;;;24.76;43.95;99504.00;4974787;28;19925;-62
2021/07/10 10:04:22;;;;;;;;;;;;;;;23.66;46.54;99492.66;4975299;28;19957;-62
2021/07/10 10:06:47;;;;;;;;;;;;;;;24.80;45.55;99501.41;4974770;28;19924;-62
2021/07/10 10:09:17;;;;;;;;;;;;;;;25.69;41.56;99495.81;4975041;28;20005;-63
2021/07/10 10:12:02;;;;;;;;;;;;;;;23.68;46.65;99493.94;4973106;28;19918;-62
2021/07/10 10:14:27;;;;;;;;;;;;;;;24.91;45.83;99497.16;4974873;28;19913;-62
2021/07/10 10:16:53;;;;;;;;;;;;;;;25.60;41.82;99487.66;4974325;28;19998;-62
2021/07/10 10:19:20;;;;;;;;;;;;;;;25.82;41.16;99489.22;4974741;28;19937;-62
2021/07/10 10:21:46;;;;;;;;;;;;;;;26.26;41.34;99484.09;4974385;28;19913;-62
2021/07/10 10:24:11;;;;;;;;;;;;;;;27.22;41.10;99475.41;4973527;28;19914;-63
2021/07/10 10:26:36;;;;;;;;;;;;;;;27.52;37.69;99484.13;4973230;28;19918;-62
2021/07/10 10:29:02;;;;;;;;;;;;;;;26.24;39.56;99483.63;4974925;28;19910;-62
2021/07/10 10:31:27;;;;;;;;;;;;;;;26.22;37.75;99491.41;4974430;28;20363;-62
2021/07/10 10:33:52;;;;;;;;;;;;;;;26.76;35.73;99483.00;4974858;28;19917;-62
2021/07/10 10:36:18;;;;;;;;;;;;;;;26.27;35.54;99477.47;4972970;28;19926;-62
2021/07/10 10:38:44;;;;;;;;;;;;;;;26.05;37.24;99475.94;4973259;28;19914;-62
2021/07/10 10:41:09;;;;;;;;;;;;;;;25.89;37.30;99478.53;4974323;28;20375;-62
2021/07/10 10:43:35;;;;;;;;;;;;;;;26.64;36.81;99477.53;4974536;28;19914;-62
2021/07/10 10:46:13;;;;;;;;;;;;;;;27.89;35.74;99473.00;4972799;28;19926;-62
2021/07/10 10:48:39;;;;;;;;;;;;;;;25.14;40.46;99471.03;4974539;28;20407;-63
2021/07/10 10:51:23;;;;;;;;;;;;;;;23.11;43.43;99463.22;4972931;28;19925;-62
2021/07/10 10:53:48;;;;;;;;;;;;;;;25.31;38.54;99461.09;4974739;28;20008;-62
2021/07/10 10:56:33;;;;;;;;;;;;;;;26.24;36.87;99461.66;4972914;28;20065;-62
2021/07/10 10:58:58;;;;;;;;;;;;;;;25.57;37.13;99467.16;4974010;28;20052;-62
2021/07/10 11:01:29;;;;;;;;;;;;;;;25.52;37.38;99453.66;4973951;28;20013;-62
2021/07/10 11:03:54;;;;;;;;;;;;;;;24.67;38.53;99457.47;4974483;28;19921;-62
2021/07/10 11:06:27;;;;;;;;;;;;;;;25.72;38.68;99443.78;4972726;28;19917;-62
2021/07/10 11:08:52;;;;;;;;;;;;;;;25.28;37.41;99453.53;4976981;28;20426;-62
2021/07/10 11:11:18;;;;;;;;;;;;;;;26.21;36.46;99445.88;4977880;28;20000;-63
2021/07/10 11:13:55;;;;;;;;;;;;;;;26.06;38.65;99444.59;4977551;28;20399;-62
2021/07/10 11:16:20;;;;;;;;;;;;;;;25.59;35.57;99442.16;4975195;28;20396;-62
2021/07/10 11:18:55;;;;;;;;;;;;;;;25.38;38.45;99442.16;4976701;28;20007;-61
2021/07/10 11:21:38;;;;;;;;;;;;;;;26.04;37.55;99439.44;4977759;28;19925;-61
2021/07/10 11:24:19;;;;;;;;;;;;;;;25.99;36.21;99436.91;4977783;28;19994;-62
2021/07/10 11:26:53;;;;;;;;;;;;;;;26.51;35.95;99426.41;4977399;28;19925;-62
2021/07/10 11:29:22;;;;;;;;;;;;;;;24.08;39.74;99430.78;4978028;28;19921;-62
2021/07/10 11:31:47;;;;;;;;;;;;;;;23.53;40.71;99425.25;4977356;28;19918;-62
2021/07/10 11:34:17;;;;;;;;;;;;;;;23.65;41.39;99422.66;4977680;28;19921;-62
2021/07/10 11:36:55;;;;;;;;;;;;;;;23.08;42.45;99403.72;4977186;28;19925;-62
2021/07/10 11:39:24;;;;;;;;;;;;;;;23.55;40.01;99412.06;4977566;28;19914;-62
2021/07/10 11:41:55;;;;;;;;;;;;;;;23.32;39.66;99409.53;4977194;28;20395;-62
2021/07/10 11:44:22;;;;;;;;;;;;;;;23.74;39.56;99409.81;4977631;28;20431;-62
2021/07/10 11:47:05;;;;;;;;;;;;;;;24.52;36.60;99403.25;4977016;28;19922;-62
2021/07/10 11:49:38;;;;;;;;;;;;;;;24.77;37.86;99408.91;4977424;28;19914;-62
2021/07/10 11:52:08;;;;;;;;;;;;;;;24.85;37.90;99397.06;4977020;28;20395;-62
2021/07/10 11:54:37;;;;;;;;;;;;;;;25.69;36.79;99391.53;4976184;28;19921;-62
2021/07/10 11:57:03;;;;;;;;;;;;;;;25.24;36.21;99392.28;4976872;28;19946;-62
2021/07/10 11:59:28;;;;;;;;;;;;;;;26.18;35.16;99388.84;4976156;28;19946;-62
2021/07/10 12:01:54;;;;;;;;;;;;;;;24.98;36.06;99391.31;4975549;28;19925;-62
2021/07/10 12:04:19;;;;;;;;;;;;;;;24.77;36.50;99389.72;4976231;28;19918;-62
2021/07/10 12:06:44;;;;;;;;;;;;;;;25.33;36.72;99390.25;4976711;28;19925;-62
2021/07/10 12:09:09;;;;;;;;;;;;;;;24.90;38.65;99383.16;4977317;28;20001;-62
2021/07/10 12:11:35;;;;;;;;;;;;;;;25.45;37.70;99381.25;4976820;28;20356;-62
2021/07/10 12:14:03;;;;;;;;;;;;;;;25.59;38.55;99382.56;4977117;28;19914;-62
2021/07/10 12:16:29;;;;;;;;;;;;;;;24.59;42.09;99387.09;4976508;28;20014;-62
2021/07/10 12:18:54;;;;;;;;;;;;;;;25.67;39.97;99385.56;4975837;28;19961;-62
2021/07/10 12:21:19;;;;;;;;;;;;;;;24.27;41.03;99386.59;4976175;28;19926;-62
2021/07/10 12:23:49;;;;;;;;;;;;;;;24.92;38.73;99375.41;4976941;28;19949;-62
2021/07/10 12:26:18;;;;;;;;;;;;;;;24.67;39.66;99367.03;4976507;28;19918;-62
2021/07/10 12:28:44;;;;;;;;;;;;;;;24.28;42.12;99381.91;4976772;28;19914;-62
2021/07/10 12:31:29;;;;;;;;;;;;;;;24.36;40.26;99372.03;4976244;28;19922;-62
2021/07/10 12:33:54;;;;;;;;;;;;;;;23.78;41.88;99372.44;4976836;28;20005;-62
2021/07/10 12:36:30;;;;;;;;;;;;;;;24.99;40.20;99370.19;4976196;28;20005;-62
2021/07/10 12:38:55;;;;;;;;;;;;;;;25.10;40.21;99360.41;4975424;28;19953;-62
2021/07/10 12:41:24;;;;;;;;;;;;;;;24.63;42.11;99360.59;4976077;28;20005;-63
2021/07/10 12:43:52;;;;;;;;;;;;;;;24.19;43.44;99354.56;4975342;28;20348;-63